sensor_id;sensor_type;location;lat;lon;timestamp;temperature;humidity
12819;DHT22;6474;53.474;9.894;2023-05-10T00:00:29;14.60;56.80
12819;DHT22;6474;53.474;9.894;2023-05-10T00:02:57;14.60;56.80
12819;DHT22;6474;53.474;9.894;2023-05-10T00:05:25;14.50;56.70
12819;DHT22;6474;53.474;9.894;2023-05-10T00:07:53;14.50;56.70
12819;DHT22;6474;53.474;9.894;2023-05-10T00:10:21;14.50;56.70
12819;DHT22;6474;53.474;9.894;2023-05-10T00:12:48;14.40;56.90
12819;DHT22;6474;53.474;9.894;2023-05-10T00:15:16;14.40;57.00
12819;DHT22;6474;53.474;9.894;2023-05-10T00:17:45;14.40;57.00
12819;DHT22;6474;53.474;9.894;2023-05-10T00:20:13;14.40;57.10
12819;DHT22;6474;53.474;9.894;2023-05-10T00:22:41;14.30;57.00
12819;DHT22;6474;53.474;9.894;2023-05-10T00:25:09;14.30;57.00
12819;DHT22;6474;53.474;9.894;2023-05-10T00:27:37;14.30;57.00
12819;DHT22;6474;53.474;9.894;2023-05-10T00:30:06;14.30;57.00
12819;DHT22;6474;53.474;9.894;2023-05-10T00:32:34;14.30;57.10
12819;DHT22;6474;53.474;9.894;2023-05-10T00:35:04;14.30;57.10
12819;DHT22;6474;53.474;9.894;2023-05-10T00:37:31;14.20;57.10
12819;DHT22;6474;53.474;9.894;2023-05-10T00:40:00;14.20;57.10
12819;DHT22;6474;53.474;9.894;2023-05-10T00:42:27;14.20;57.10
12819;DHT22;6474;53.474;9.894;2023-05-10T00:44:55;14.10;57.10
12819;DHT22;6474;53.474;9.894;2023-05-10T00:47:24;14.10;57.10
12819;DHT22;6474;53.474;9.894;2023-05-10T00:49:52;14.10;57.10
12819;DHT22;6474;53.474;9.894;2023-05-10T00:52:21;14.10;57.20
12819;DHT22;6474;53.474;9.894;2023-05-10T00:54:51;14.10;57.20
12819;DHT22;6474;53.474;9.894;2023-05-10T00:57:19;14.10;57.20
12819;DHT22;6474;53.474;9.894;2023-05-10T00:59:48;14.00;57.10
12819;DHT22;6474;53.474;9.894;2023-05-10T01:02:15;14.00;57.10
12819;DHT22;6474;53.474;9.894;2023-05-10T01:04:43;14.00;57.10
12819;DHT22;6474;53.474;9.894;2023-05-10T01:07:13;14.00;57.20
12819;DHT22;6474;53.474;9.894;2023-05-10T01:09:43;14.00;57.20
12819;DHT22;6474;53.474;9.894;2023-05-10T01:12:11;13.90;57.10
12819;DHT22;6474;53.474;9.894;2023-05-10T01:14:39;13.90;57.20
12819;DHT22;6474;53.474;9.894;2023-05-10T01:17:07;13.90;57.20
12819;DHT22;6474;53.474;9.894;2023-05-10T01:19:35;13.90;57.20
12819;DHT22;6474;53.474;9.894;2023-05-10T01:22:11;13.90;57.20
12819;DHT22;6474;53.474;9.894;2023-05-10T01:25:01;13.90;57.20
12819;DHT22;6474;53.474;9.894;2023-05-10T01:27:51;13.80;57.20
12819;DHT22;6474;53.474;9.894;2023-05-10T01:30:35;13.90;57.30
12819;DHT22;6474;53.474;9.894;2023-05-10T01:33:15;13.80;57.20
12819;DHT22;6474;53.474;9.894;2023-05-10T01:35:51;13.80;57.20
12819;DHT22;6474;53.474;9.894;2023-05-10T01:38:29;13.80;57.20
12819;DHT22;6474;53.474;9.894;2023-05-10T01:41:06;13.80;57.20
12819;DHT22;6474;53.474;9.894;2023-05-10T01:43:42;13.80;57.30
12819;DHT22;6474;53.474;9.894;2023-05-10T01:46:17;13.80;57.30
12819;DHT22;6474;53.474;9.894;2023-05-10T01:48:53;13.70;57.30
12819;DHT22;6474;53.474;9.894;2023-05-10T01:51:25;13.70;57.30
12819;DHT22;6474;53.474;9.894;2023-05-10T01:53:58;13.70;57.30
12819;DHT22;6474;53.474;9.894;2023-05-10T01:56:28;13.70;57.30
12819;DHT22;6474;53.474;9.894;2023-05-10T01:58:58;13.60;57.20
12819;DHT22;6474;53.474;9.894;2023-05-10T02:01:27;13.60;57.20
12819;DHT22;6474;53.474;9.894;2023-05-10T02:03:57;13.60;57.30
12819;DHT22;6474;53.474;9.894;2023-05-10T02:06:27;13.50;57.30
12819;DHT22;6474;53.474;9.894;2023-05-10T02:08:55;13.50;57.30
12819;DHT22;6474;53.474;9.894;2023-05-10T02:11:23;13.50;57.40
12819;DHT22;6474;53.474;9.894;2023-05-10T02:13:54;13.50;57.40
12819;DHT22;6474;53.474;9.894;2023-05-10T02:16:26;13.50;57.50
12819;DHT22;6474;53.474;9.894;2023-05-10T02:18:57;13.40;57.40
12819;DHT22;6474;53.474;9.894;2023-05-10T02:21:28;13.40;57.40
12819;DHT22;6474;53.474;9.894;2023-05-10T02:23:58;13.40;57.50
12819;DHT22;6474;53.474;9.894;2023-05-10T02:26:27;13.30;57.40
12819;DHT22;6474;53.474;9.894;2023-05-10T02:28:57;13.30;57.50
12819;DHT22;6474;53.474;9.894;2023-05-10T02:31:25;13.30;57.50
12819;DHT22;6474;53.474;9.894;2023-05-10T02:33:54;13.30;57.50
12819;DHT22;6474;53.474;9.894;2023-05-10T02:36:25;13.30;57.60
12819;DHT22;6474;53.474;9.894;2023-05-10T02:38:54;13.30;57.60
12819;DHT22;6474;53.474;9.894;2023-05-10T02:41:22;13.30;57.60
12819;DHT22;6474;53.474;9.894;2023-05-10T02:43:56;13.20;57.50
12819;DHT22;6474;53.474;9.894;2023-05-10T02:46:27;13.20;57.60
12819;DHT22;6474;53.474;9.894;2023-05-10T02:48:55;13.20;57.60
12819;DHT22;6474;53.474;9.894;2023-05-10T02:51:30;13.20;57.60
12819;DHT22;6474;53.474;9.894;2023-05-10T02:54:19;13.20;57.60
12819;DHT22;6474;53.474;9.894;2023-05-10T02:56:50;13.20;57.60
12819;DHT22;6474;53.474;9.894;2023-05-10T02:59:18;13.20;57.60
12819;DHT22;6474;53.474;9.894;2023-05-10T03:01:46;13.20;57.60
12819;DHT22;6474;53.474;9.894;2023-05-10T03:04:14;13.20;57.60
12819;DHT22;6474;53.474;9.894;2023-05-10T03:06:43;13.20;57.60
12819;DHT22;6474;53.474;9.894;2023-05-10T03:09:12;13.20;57.60
12819;DHT22;6474;53.474;9.894;2023-05-10T03:11:50;13.20;57.60
12819;DHT22;6474;53.474;9.894;2023-05-10T03:14:31;13.20;57.70
12819;DHT22;6474;53.474;9.894;2023-05-10T03:19:53;13.20;57.60
12819;DHT22;6474;53.474;9.894;2023-05-10T03:22:25;13.20;57.60
12819;DHT22;6474;53.474;9.894;2023-05-10T03:24:55;13.20;57.60
12819;DHT22;6474;53.474;9.894;2023-05-10T03:27:26;13.20;57.60
12819;DHT22;6474;53.474;9.894;2023-05-10T03:29:55;13.20;57.60
12819;DHT22;6474;53.474;9.894;2023-05-10T03:32:23;13.20;57.60
12819;DHT22;6474;53.474;9.894;2023-05-10T03:34:51;13.20;57.60
12819;DHT22;6474;53.474;9.894;2023-05-10T03:37:18;13.20;57.60
12819;DHT22;6474;53.474;9.894;2023-05-10T03:39:47;13.20;57.60
12819;DHT22;6474;53.474;9.894;2023-05-10T03:42:15;13.20;57.60
12819;DHT22;6474;53.474;9.894;2023-05-10T03:44:44;13.20;57.70
12819;DHT22;6474;53.474;9.894;2023-05-10T03:47:12;13.30;57.70
12819;DHT22;6474;53.474;9.894;2023-05-10T03:49:39;13.20;57.70
12819;DHT22;6474;53.474;9.894;2023-05-10T03:52:07;13.20;57.70
12819;DHT22;6474;53.474;9.894;2023-05-10T03:54:35;13.20;57.70
12819;DHT22;6474;53.474;9.894;2023-05-10T03:57:04;13.30;57.80
12819;DHT22;6474;53.474;9.894;2023-05-10T03:59:33;13.20;57.70
12819;DHT22;6474;53.474;9.894;2023-05-10T04:02:02;13.20;57.70
12819;DHT22;6474;53.474;9.894;2023-05-10T04:04:30;13.20;57.70
12819;DHT22;6474;53.474;9.894;2023-05-10T04:06:58;13.20;57.70
12819;DHT22;6474;53.474;9.894;2023-05-10T04:09:25;13.20;57.80
12819;DHT22;6474;53.474;9.894;2023-05-10T04:11:53;13.20;57.80
12819;DHT22;6474;53.474;9.894;2023-05-10T04:14:23;13.20;57.80
12819;DHT22;6474;53.474;9.894;2023-05-10T04:16:51;13.20;57.70
12819;DHT22;6474;53.474;9.894;2023-05-10T04:19:19;13.20;57.70
12819;DHT22;6474;53.474;9.894;2023-05-10T04:21:47;13.30;57.80
12819;DHT22;6474;53.474;9.894;2023-05-10T04:24:14;13.30;57.80
12819;DHT22;6474;53.474;9.894;2023-05-10T04:26:42;13.30;57.70
12819;DHT22;6474;53.474;9.894;2023-05-10T04:29:10;13.30;57.70
12819;DHT22;6474;53.474;9.894;2023-05-10T04:31:39;13.40;57.70
12819;DHT22;6474;53.474;9.894;2023-05-10T04:34:07;13.40;57.70
12819;DHT22;6474;53.474;9.894;2023-05-10T04:36:35;13.50;57.80
12819;DHT22;6474;53.474;9.894;2023-05-10T04:39:03;13.50;57.80
12819;DHT22;6474;53.474;9.894;2023-05-10T04:41:31;13.50;57.70
12819;DHT22;6474;53.474;9.894;2023-05-10T04:43:59;13.50;57.70
12819;DHT22;6474;53.474;9.894;2023-05-10T04:46:26;13.60;57.80
12819;DHT22;6474;53.474;9.894;2023-05-10T04:48:56;13.60;57.80
12819;DHT22;6474;53.474;9.894;2023-05-10T04:51:23;13.60;57.80
12819;DHT22;6474;53.474;9.894;2023-05-10T04:53:51;13.60;57.80
12819;DHT22;6474;53.474;9.894;2023-05-10T04:56:32;13.70;57.90
12819;DHT22;6474;53.474;9.894;2023-05-10T04:59:00;13.70;57.90
12819;DHT22;6474;53.474;9.894;2023-05-10T05:01:28;13.80;57.90
12819;DHT22;6474;53.474;9.894;2023-05-10T05:03:57;13.80;57.90
12819;DHT22;6474;53.474;9.894;2023-05-10T05:06:25;13.90;57.90
12819;DHT22;6474;53.474;9.894;2023-05-10T05:08:53;13.90;57.80
12819;DHT22;6474;53.474;9.894;2023-05-10T05:11:21;14.00;57.90
12819;DHT22;6474;53.474;9.894;2023-05-10T05:13:49;14.00;57.80
12819;DHT22;6474;53.474;9.894;2023-05-10T05:16:17;14.10;57.80
12819;DHT22;6474;53.474;9.894;2023-05-10T05:18:45;14.20;57.90
12819;DHT22;6474;53.474;9.894;2023-05-10T05:21:18;14.20;57.80
12819;DHT22;6474;53.474;9.894;2023-05-10T05:23:46;14.30;57.80
12819;DHT22;6474;53.474;9.894;2023-05-10T05:26:14;14.30;57.80
12819;DHT22;6474;53.474;9.894;2023-05-10T05:28:42;14.40;57.90
12819;DHT22;6474;53.474;9.894;2023-05-10T05:31:10;14.40;57.90
12819;DHT22;6474;53.474;9.894;2023-05-10T05:33:38;14.50;57.90
12819;DHT22;6474;53.474;9.894;2023-05-10T05:36:06;14.50;57.80
12819;DHT22;6474;53.474;9.894;2023-05-10T05:38:35;14.60;57.80
12819;DHT22;6474;53.474;9.894;2023-05-10T05:41:03;14.60;57.80
12819;DHT22;6474;53.474;9.894;2023-05-10T05:43:31;14.70;57.90
12819;DHT22;6474;53.474;9.894;2023-05-10T05:46:01;14.80;57.90
12819;DHT22;6474;53.474;9.894;2023-05-10T05:48:30;14.90;57.90
12819;DHT22;6474;53.474;9.894;2023-05-10T05:50:58;14.90;57.70
12819;DHT22;6474;53.474;9.894;2023-05-10T05:53:26;15.00;57.80
12819;DHT22;6474;53.474;9.894;2023-05-10T05:55:56;15.00;57.70
12819;DHT22;6474;53.474;9.894;2023-05-10T05:58:24;15.10;57.80
12819;DHT22;6474;53.474;9.894;2023-05-10T06:00:52;15.10;57.70
12819;DHT22;6474;53.474;9.894;2023-05-10T06:03:20;15.10;57.70
12819;DHT22;6474;53.474;9.894;2023-05-10T06:05:50;15.20;57.80
12819;DHT22;6474;53.474;9.894;2023-05-10T06:08:18;15.20;57.80
12819;DHT22;6474;53.474;9.894;2023-05-10T06:10:47;15.30;57.80
12819;DHT22;6474;53.474;9.894;2023-05-10T06:13:16;15.30;57.70
12819;DHT22;6474;53.474;9.894;2023-05-10T06:15:44;15.30;57.80
12819;DHT22;6474;53.474;9.894;2023-05-10T06:18:12;15.30;57.90
12819;DHT22;6474;53.474;9.894;2023-05-10T06:20:41;15.30;58.00
12819;DHT22;6474;53.474;9.894;2023-05-10T06:23:09;15.40;58.00
12819;DHT22;6474;53.474;9.894;2023-05-10T06:25:37;15.50;58.00
12819;DHT22;6474;53.474;9.894;2023-05-10T06:28:05;15.70;57.90
12819;DHT22;6474;53.474;9.894;2023-05-10T06:30:36;15.70;57.70
12819;DHT22;6474;53.474;9.894;2023-05-10T06:33:05;15.80;57.80
12819;DHT22;6474;53.474;9.894;2023-05-10T06:35:33;15.80;57.80
12819;DHT22;6474;53.474;9.894;2023-05-10T06:38:00;15.90;57.90
12819;DHT22;6474;53.474;9.894;2023-05-10T06:40:28;15.90;57.90
12819;DHT22;6474;53.474;9.894;2023-05-10T06:42:56;16.00;57.90
12819;DHT22;6474;53.474;9.894;2023-05-10T06:45:24;16.00;57.90
12819;DHT22;6474;53.474;9.894;2023-05-10T06:47:53;16.10;57.80
12819;DHT22;6474;53.474;9.894;2023-05-10T06:50:21;16.10;57.70
12819;DHT22;6474;53.474;9.894;2023-05-10T06:52:49;16.10;57.70
12819;DHT22;6474;53.474;9.894;2023-05-10T06:55:18;16.20;58.10
12819;DHT22;6474;53.474;9.894;2023-05-10T06:57:46;16.30;57.80
12819;DHT22;6474;53.474;9.894;2023-05-10T07:00:16;16.40;57.80
12819;DHT22;6474;53.474;9.894;2023-05-10T07:02:45;16.50;57.90
12819;DHT22;6474;53.474;9.894;2023-05-10T07:05:14;16.50;57.90
12819;DHT22;6474;53.474;9.894;2023-05-10T07:07:43;16.60;57.90
12819;DHT22;6474;53.474;9.894;2023-05-10T07:10:10;16.70;58.00
12819;DHT22;6474;53.474;9.894;2023-05-10T07:12:38;16.70;58.00
12819;DHT22;6474;53.474;9.894;2023-05-10T07:15:08;16.70;58.00
12819;DHT22;6474;53.474;9.894;2023-05-10T07:17:36;16.80;58.10
12819;DHT22;6474;53.474;9.894;2023-05-10T07:20:05;16.90;58.20
12819;DHT22;6474;53.474;9.894;2023-05-10T07:22:35;16.90;58.20
12819;DHT22;6474;53.474;9.894;2023-05-10T07:25:03;17.00;58.30
12819;DHT22;6474;53.474;9.894;2023-05-10T07:27:30;17.00;58.30
12819;DHT22;6474;53.474;9.894;2023-05-10T07:29:59;17.00;58.30
12819;DHT22;6474;53.474;9.894;2023-05-10T07:32:27;17.10;58.30
12819;DHT22;6474;53.474;9.894;2023-05-10T07:34:58;17.10;58.90
12819;DHT22;6474;53.474;9.894;2023-05-10T07:37:26;17.10;58.40
12819;DHT22;6474;53.474;9.894;2023-05-10T07:39:55;17.10;58.30
12819;DHT22;6474;53.474;9.894;2023-05-10T07:42:23;17.10;58.30
12819;DHT22;6474;53.474;9.894;2023-05-10T07:44:51;17.20;58.40
12819;DHT22;6474;53.474;9.894;2023-05-10T07:47:18;17.10;58.40
12819;DHT22;6474;53.474;9.894;2023-05-10T07:49:46;17.10;58.30
12819;DHT22;6474;53.474;9.894;2023-05-10T07:52:14;17.10;58.30
12819;DHT22;6474;53.474;9.894;2023-05-10T07:54:42;17.10;58.30
12819;DHT22;6474;53.474;9.894;2023-05-10T07:57:12;17.20;58.40
12819;DHT22;6474;53.474;9.894;2023-05-10T07:59:44;17.20;58.40
12819;DHT22;6474;53.474;9.894;2023-05-10T08:02:12;17.30;58.50
12819;DHT22;6474;53.474;9.894;2023-05-10T08:04:40;17.40;58.60
12819;DHT22;6474;53.474;9.894;2023-05-10T08:07:07;17.40;58.50
12819;DHT22;6474;53.474;9.894;2023-05-10T08:09:35;17.50;58.70
12819;DHT22;6474;53.474;9.894;2023-05-10T08:12:04;17.50;58.70
12819;DHT22;6474;53.474;9.894;2023-05-10T08:14:33;17.50;58.70
12819;DHT22;6474;53.474;9.894;2023-05-10T08:17:03;17.60;58.70
12819;DHT22;6474;53.474;9.894;2023-05-10T08:19:31;17.60;58.70
12819;DHT22;6474;53.474;9.894;2023-05-10T08:21:58;17.60;58.70
12819;DHT22;6474;53.474;9.894;2023-05-10T08:24:26;17.70;58.80
12819;DHT22;6474;53.474;9.894;2023-05-10T08:26:54;17.60;58.70
12819;DHT22;6474;53.474;9.894;2023-05-10T08:29:22;17.60;58.70
12819;DHT22;6474;53.474;9.894;2023-05-10T08:31:53;17.60;58.90
12819;DHT22;6474;53.474;9.894;2023-05-10T08:34:21;17.60;59.00
12819;DHT22;6474;53.474;9.894;2023-05-10T08:36:49;17.50;59.10
12819;DHT22;6474;53.474;9.894;2023-05-10T08:39:17;17.50;59.10
12819;DHT22;6474;53.474;9.894;2023-05-10T08:41:58;17.40;59.10
12819;DHT22;6474;53.474;9.894;2023-05-10T08:44:29;17.40;59.30
12819;DHT22;6474;53.474;9.894;2023-05-10T08:46:59;17.50;59.40
12819;DHT22;6474;53.474;9.894;2023-05-10T08:49:31;17.40;59.30
12819;DHT22;6474;53.474;9.894;2023-05-10T08:52:02;17.40;59.40
12819;DHT22;6474;53.474;9.894;2023-05-10T08:54:32;17.50;59.60
12819;DHT22;6474;53.474;9.894;2023-05-10T08:57:00;17.60;59.60
12819;DHT22;6474;53.474;9.894;2023-05-10T08:59:28;17.60;59.60
12819;DHT22;6474;53.474;9.894;2023-05-10T09:01:59;17.60;59.60
12819;DHT22;6474;53.474;9.894;2023-05-10T09:04:27;17.60;59.60
12819;DHT22;6474;53.474;9.894;2023-05-10T09:06:55;17.70;59.70
12819;DHT22;6474;53.474;9.894;2023-05-10T09:09:24;17.60;59.60
12819;DHT22;6474;53.474;9.894;2023-05-10T09:11:53;17.60;59.70
12819;DHT22;6474;53.474;9.894;2023-05-10T09:14:23;17.50;59.60
12819;DHT22;6474;53.474;9.894;2023-05-10T09:16:53;17.50;59.60
12819;DHT22;6474;53.474;9.894;2023-05-10T09:19:23;17.50;59.70
12819;DHT22;6474;53.474;9.894;2023-05-10T09:21:51;17.40;59.70
12819;DHT22;6474;53.474;9.894;2023-05-10T09:24:18;17.30;59.70
12819;DHT22;6474;53.474;9.894;2023-05-10T09:26:47;17.30;60.60
12819;DHT22;6474;53.474;9.894;2023-05-10T09:29:15;17.20;59.80
12819;DHT22;6474;53.474;9.894;2023-05-10T09:31:45;17.10;59.80
12819;DHT22;6474;53.474;9.894;2023-05-10T09:34:19;17.10;60.00
12819;DHT22;6474;53.474;9.894;2023-05-10T09:36:56;17.00;59.90
12819;DHT22;6474;53.474;9.894;2023-05-10T09:39:31;17.10;60.20
12819;DHT22;6474;53.474;9.894;2023-05-10T09:42:01;17.00;60.10
12819;DHT22;6474;53.474;9.894;2023-05-10T09:44:31;17.00;60.00
12819;DHT22;6474;53.474;9.894;2023-05-10T09:46:59;17.00;60.00
12819;DHT22;6474;53.474;9.894;2023-05-10T09:49:27;17.00;60.00
12819;DHT22;6474;53.474;9.894;2023-05-10T09:52:01;16.90;60.00
12819;DHT22;6474;53.474;9.894;2023-05-10T09:54:30;16.80;59.90
12819;DHT22;6474;53.474;9.894;2023-05-10T09:56:58;16.80;60.00
12819;DHT22;6474;53.474;9.894;2023-05-10T09:59:27;16.80;60.20
12819;DHT22;6474;53.474;9.894;2023-05-10T10:01:56;16.70;60.10
12819;DHT22;6474;53.474;9.894;2023-05-10T10:04:25;16.70;60.80
12819;DHT22;6474;53.474;9.894;2023-05-10T10:07:01;16.60;60.10
12819;DHT22;6474;53.474;9.894;2023-05-10T10:09:31;16.50;60.10
12819;DHT22;6474;53.474;9.894;2023-05-10T10:11:59;16.40;60.20
12819;DHT22;6474;53.474;9.894;2023-05-10T10:14:29;16.30;60.20
12819;DHT22;6474;53.474;9.894;2023-05-10T10:16:57;16.30;60.30
12819;DHT22;6474;53.474;9.894;2023-05-10T10:19:30;16.20;60.30
12819;DHT22;6474;53.474;9.894;2023-05-10T10:22:01;16.20;60.50
12819;DHT22;6474;53.474;9.894;2023-05-10T10:24:29;16.20;60.50
12819;DHT22;6474;53.474;9.894;2023-05-10T10:27:01;16.20;60.50
12819;DHT22;6474;53.474;9.894;2023-05-10T10:29:36;16.20;60.50
12819;DHT22;6474;53.474;9.894;2023-05-10T10:32:10;16.30;60.60
12819;DHT22;6474;53.474;9.894;2023-05-10T10:34:39;16.30;60.60
12819;DHT22;6474;53.474;9.894;2023-05-10T10:37:09;16.30;60.70
12819;DHT22;6474;53.474;9.894;2023-05-10T10:39:37;16.30;60.60
12819;DHT22;6474;53.474;9.894;2023-05-10T10:42:05;16.40;60.70
12819;DHT22;6474;53.474;9.894;2023-05-10T10:44:37;16.40;60.60
12819;DHT22;6474;53.474;9.894;2023-05-10T10:47:08;16.40;60.60
12819;DHT22;6474;53.474;9.894;2023-05-10T10:49:42;16.30;60.60
12819;DHT22;6474;53.474;9.894;2023-05-10T10:52:24;16.20;60.60
12819;DHT22;6474;53.474;9.894;2023-05-10T10:55:00;16.20;60.80
12819;DHT22;6474;53.474;9.894;2023-05-10T10:57:31;16.20;60.80
12819;DHT22;6474;53.474;9.894;2023-05-10T11:00:23;16.20;61.00
12819;DHT22;6474;53.474;9.894;2023-05-10T11:02:52;16.20;61.00
12819;DHT22;6474;53.474;9.894;2023-05-10T11:05:41;16.30;61.10
12819;DHT22;6474;53.474;9.894;2023-05-10T11:08:16;16.40;61.20
12819;DHT22;6474;53.474;9.894;2023-05-10T11:10:53;16.40;61.10
12819;DHT22;6474;53.474;9.894;2023-05-10T11:13:29;16.40;61.00
12819;DHT22;6474;53.474;9.894;2023-05-10T11:15:57;16.50;61.10
12819;DHT22;6474;53.474;9.894;2023-05-10T11:18:27;16.50;61.10
12819;DHT22;6474;53.474;9.894;2023-05-10T11:20:56;16.40;61.10
12819;DHT22;6474;53.474;9.894;2023-05-10T11:23:31;16.40;61.20
12819;DHT22;6474;53.474;9.894;2023-05-10T11:26:00;16.40;61.20
12819;DHT22;6474;53.474;9.894;2023-05-10T11:28:28;16.30;61.20
12819;DHT22;6474;53.474;9.894;2023-05-10T11:30:56;16.40;61.30
12819;DHT22;6474;53.474;9.894;2023-05-10T11:33:24;16.40;61.30
12819;DHT22;6474;53.474;9.894;2023-05-10T11:35:52;16.30;61.40
12819;DHT22;6474;53.474;9.894;2023-05-10T11:38:20;16.30;61.50
12819;DHT22;6474;53.474;9.894;2023-05-10T11:40:51;16.40;61.60
12819;DHT22;6474;53.474;9.894;2023-05-10T11:43:23;16.40;61.70
12819;DHT22;6474;53.474;9.894;2023-05-10T11:45:54;16.50;61.70
12819;DHT22;6474;53.474;9.894;2023-05-10T11:48:22;16.60;61.70
12819;DHT22;6474;53.474;9.894;2023-05-10T11:50:50;16.50;61.40
12819;DHT22;6474;53.474;9.894;2023-05-10T11:53:19;16.60;61.30
12819;DHT22;6474;53.474;9.894;2023-05-10T11:55:51;16.50;61.20
12819;DHT22;6474;53.474;9.894;2023-05-10T11:58:19;16.50;61.30
12819;DHT22;6474;53.474;9.894;2023-05-10T12:00:48;16.60;61.50
12819;DHT22;6474;53.474;9.894;2023-05-10T12:03:16;16.60;61.60
12819;DHT22;6474;53.474;9.894;2023-05-10T12:05:45;16.60;61.70
12819;DHT22;6474;53.474;9.894;2023-05-10T12:08:14;16.60;61.60
12819;DHT22;6474;53.474;9.894;2023-05-10T12:10:41;16.60;61.70
12819;DHT22;6474;53.474;9.894;2023-05-10T12:13:14;16.60;61.70
12819;DHT22;6474;53.474;9.894;2023-05-10T12:15:43;16.60;61.70
12819;DHT22;6474;53.474;9.894;2023-05-10T12:18:11;16.60;61.80
12819;DHT22;6474;53.474;9.894;2023-05-10T12:20:40;16.60;61.80
12819;DHT22;6474;53.474;9.894;2023-05-10T12:23:09;16.60;61.90
12819;DHT22;6474;53.474;9.894;2023-05-10T12:25:37;16.70;61.90
12819;DHT22;6474;53.474;9.894;2023-05-10T12:28:07;16.70;61.90
12819;DHT22;6474;53.474;9.894;2023-05-10T12:30:36;16.70;62.20
12819;DHT22;6474;53.474;9.894;2023-05-10T12:33:08;16.80;62.00
12819;DHT22;6474;53.474;9.894;2023-05-10T12:35:44;16.90;62.10
12819;DHT22;6474;53.474;9.894;2023-05-10T12:38:25;16.90;62.20
12819;DHT22;6474;53.474;9.894;2023-05-10T12:40:56;17.00;62.20
12819;DHT22;6474;53.474;9.894;2023-05-10T12:43:23;17.10;62.30
12819;DHT22;6474;53.474;9.894;2023-05-10T12:45:53;17.10;62.30
12819;DHT22;6474;53.474;9.894;2023-05-10T12:48:21;17.20;62.30
12819;DHT22;6474;53.474;9.894;2023-05-10T12:50:49;17.30;62.50
12819;DHT22;6474;53.474;9.894;2023-05-10T12:53:17;17.30;62.50
12819;DHT22;6474;53.474;9.894;2023-05-10T12:55:44;17.40;62.60
12819;DHT22;6474;53.474;9.894;2023-05-10T12:58:13;17.40;62.60
12819;DHT22;6474;53.474;9.894;2023-05-10T13:01:02;17.50;62.60
12819;DHT22;6474;53.474;9.894;2023-05-10T13:03:31;17.50;62.60
12819;DHT22;6474;53.474;9.894;2023-05-10T13:05:59;17.60;62.60
12819;DHT22;6474;53.474;9.894;2023-05-10T13:08:27;17.60;62.60
12819;DHT22;6474;53.474;9.894;2023-05-10T13:10:59;17.70;62.70
12819;DHT22;6474;53.474;9.894;2023-05-10T13:13:27;17.70;62.70
12819;DHT22;6474;53.474;9.894;2023-05-10T13:15:55;17.80;62.90
12819;DHT22;6474;53.474;9.894;2023-05-10T13:18:24;17.90;63.70
12819;DHT22;6474;53.474;9.894;2023-05-10T13:20:54;18.00;63.00
12819;DHT22;6474;53.474;9.894;2023-05-10T13:23:22;18.00;62.90
12819;DHT22;6474;53.474;9.894;2023-05-10T13:25:50;18.00;63.00
12819;DHT22;6474;53.474;9.894;2023-05-10T13:28:17;18.00;62.90
12819;DHT22;6474;53.474;9.894;2023-05-10T13:30:45;18.00;62.90
12819;DHT22;6474;53.474;9.894;2023-05-10T13:33:13;18.00;62.90
12819;DHT22;6474;53.474;9.894;2023-05-10T13:35:42;18.00;62.90
12819;DHT22;6474;53.474;9.894;2023-05-10T13:38:10;18.00;63.00
12819;DHT22;6474;53.474;9.894;2023-05-10T13:40:37;18.10;63.00
12819;DHT22;6474;53.474;9.894;2023-05-10T13:43:05;18.10;63.00
12819;DHT22;6474;53.474;9.894;2023-05-10T13:45:33;18.20;63.10
12819;DHT22;6474;53.474;9.894;2023-05-10T13:48:01;18.30;64.10
12819;DHT22;6474;53.474;9.894;2023-05-10T13:50:29;18.30;63.30
12819;DHT22;6474;53.474;9.894;2023-05-10T13:52:58;18.40;63.40
12819;DHT22;6474;53.474;9.894;2023-05-10T13:55:26;18.50;63.30
12819;DHT22;6474;53.474;9.894;2023-05-10T13:57:55;18.50;63.20
12819;DHT22;6474;53.474;9.894;2023-05-10T14:00:23;18.60;63.20
12819;DHT22;6474;53.474;9.894;2023-05-10T14:02:51;18.70;63.30
12819;DHT22;6474;53.474;9.894;2023-05-10T14:05:20;18.80;63.30
12819;DHT22;6474;53.474;9.894;2023-05-10T14:07:51;18.80;63.20
12819;DHT22;6474;53.474;9.894;2023-05-10T14:10:21;18.70;63.00
12819;DHT22;6474;53.474;9.894;2023-05-10T14:12:49;18.70;63.20
12819;DHT22;6474;53.474;9.894;2023-05-10T14:15:17;18.70;63.20
12819;DHT22;6474;53.474;9.894;2023-05-10T14:17:45;18.70;63.30
12819;DHT22;6474;53.474;9.894;2023-05-10T14:20:13;18.60;63.20
12819;DHT22;6474;53.474;9.894;2023-05-10T14:22:41;18.60;63.30
12819;DHT22;6474;53.474;9.894;2023-05-10T14:25:09;18.50;63.30
12819;DHT22;6474;53.474;9.894;2023-05-10T14:27:39;18.50;63.30
12819;DHT22;6474;53.474;9.894;2023-05-10T14:30:07;18.50;63.40
12819;DHT22;6474;53.474;9.894;2023-05-10T14:32:35;18.50;63.40
12819;DHT22;6474;53.474;9.894;2023-05-10T14:35:05;18.50;63.50
12819;DHT22;6474;53.474;9.894;2023-05-10T14:37:36;18.40;63.40
12819;DHT22;6474;53.474;9.894;2023-05-10T14:40:05;18.30;63.30
12819;DHT22;6474;53.474;9.894;2023-05-10T14:42:33;18.30;63.40
12819;DHT22;6474;53.474;9.894;2023-05-10T14:45:03;18.30;63.50
12819;DHT22;6474;53.474;9.894;2023-05-10T14:47:31;18.30;63.60
12819;DHT22;6474;53.474;9.894;2023-05-10T14:49:59;18.30;63.60
12819;DHT22;6474;53.474;9.894;2023-05-10T14:52:27;18.30;63.60
12819;DHT22;6474;53.474;9.894;2023-05-10T14:54:54;18.30;63.70
12819;DHT22;6474;53.474;9.894;2023-05-10T14:57:23;18.30;63.70
12819;DHT22;6474;53.474;9.894;2023-05-10T14:59:51;18.30;63.60
12819;DHT22;6474;53.474;9.894;2023-05-10T15:02:20;18.30;63.60
12819;DHT22;6474;53.474;9.894;2023-05-10T15:04:50;18.30;63.60
12819;DHT22;6474;53.474;9.894;2023-05-10T15:07:18;18.20;63.50
12819;DHT22;6474;53.474;9.894;2023-05-10T15:09:46;18.10;63.50
12819;DHT22;6474;53.474;9.894;2023-05-10T15:12:14;18.00;63.50
12819;DHT22;6474;53.474;9.894;2023-05-10T15:14:42;18.00;63.60
12819;DHT22;6474;53.474;9.894;2023-05-10T15:17:10;18.00;63.70
12819;DHT22;6474;53.474;9.894;2023-05-10T15:19:39;17.90;63.60
12819;DHT22;6474;53.474;9.894;2023-05-10T15:22:07;17.90;63.70
12819;DHT22;6474;53.474;9.894;2023-05-10T15:24:35;17.90;63.70
12819;DHT22;6474;53.474;9.894;2023-05-10T15:27:02;17.90;63.70
12819;DHT22;6474;53.474;9.894;2023-05-10T15:29:30;17.80;63.60
12819;DHT22;6474;53.474;9.894;2023-05-10T15:31:58;17.70;63.50
12819;DHT22;6474;53.474;9.894;2023-05-10T15:34:27;17.70;63.60
12819;DHT22;6474;53.474;9.894;2023-05-10T15:36:56;17.60;63.60
12819;DHT22;6474;53.474;9.894;2023-05-10T15:39:24;17.50;63.70
12819;DHT22;6474;53.474;9.894;2023-05-10T15:41:52;17.30;63.60
12819;DHT22;6474;53.474;9.894;2023-05-10T15:44:21;17.10;63.40
12819;DHT22;6474;53.474;9.894;2023-05-10T15:46:48;17.00;63.70
12819;DHT22;6474;53.474;9.894;2023-05-10T15:49:16;16.90;63.90
12819;DHT22;6474;53.474;9.894;2023-05-10T15:51:44;16.80;64.10
12819;DHT22;6474;53.474;9.894;2023-05-10T15:54:13;16.80;64.30
12819;DHT22;6474;53.474;9.894;2023-05-10T15:56:41;16.80;64.40
12819;DHT22;6474;53.474;9.894;2023-05-10T15:59:09;16.80;64.40
12819;DHT22;6474;53.474;9.894;2023-05-10T16:01:37;16.80;64.40